Stony Run, Pennsylvania
Current Conditions -  °F | °C
As of 9:35 AM on Sunday 23 Nov 2014 (Local Time) from KXLL Reporting Station
Scattered Clouds Scattered Clouds  
Wind Chill: 42°   Ceiling: Unl
Heat Index: 45°   Visibility: 10mi
Dew Point: 23°   Wind: 5mph
Humidity: 43%   Direction: 210°SSW
Pressure: 30.22"   Gusts: NA
Location:  40.62°N, 75.82°W
Report Text: KXLL 231435Z AUTO 21004KT 10SM SCT110 07/M05 A3022 RMK AO2
Loading
Personal Weather Stations






























Interactive Weather Map New forecast layout! Learn more

10-Day Weather Forecast

Advertisements
Track Severe Weather on mobile